North Platte, NE (69101)

10:17 AM CDT on September 04, 2015 (GMT -0500)
K0KDC North Platte | | Change Station
CLOSE
Current Station
Personal Weather Station
Location: North Platte, NE
Elevation: 2808 ft
Nearby Weather Stations

Elev 2808 ft 41.14 °N, 100.77 °W | Updated 3 minutes ago

Partly Cloudy
Partly Cloudy
74.1 °F
Feels Like 76 °F
N
1.0
Wind Variable Wind from NW
Gusts 4.0 mph

Today
High -- | Low -- °F
--% Chance of Precip.
Yesterday
High -- | Low -- °F
Precip. -- in
7:12 AM 8:11 PM
Waning Gibbous, 58% visible
Pressure 29.77 in
Visibility 10.0 miles
Clouds Clear
Heat Index 76 °F
Dew Point 64 °F
Humidity 72%
Rainfall 0.02 in
Snow Depth Not available.
UV 3 out of 12
Pollen 9.60 out of 12
Air Quality Not available.
Flu Activity Not available.
METAR KLBF 041453Z AUTO 15003KT 10SM CLR 23/17 A2985 RMK AO2 SLP080 T02280167 51010
Pressure 29.77 in
Visibility 10.0 miles
Clouds Clear
Heat Index 76 °F
Dew Point 64 °F
Humidity 72%
Rainfall 0.02 in
Snow Depth Not available.
UV 3 out of 12
Pollen 9.60 out of 12
Air Quality Not available.
Flu Activity Not available.
METAR KLBF 041453Z AUTO 15003KT 10SM CLR 23/17 A2985 RMK AO2 SLP080 T02280167 51010

10-Day Weather Forecast

×

Almanac

Astronomy

Sep. 04, 2015 Rise Set
Actual Time
Civil Twilight
Nautical Twilight
Astronomical Twilight
Moon
Length of Visible Light
Length of Day
Tomorrow will be .
, % of the Moon is Illuminated

Today's Extremes

State Highs State Lows

Community

WunderPhotos

Upload Photos

1,852,190 photos uploaded!

WunderBlogs® & News

Nearby

Air Quality

  Air Quality AQ Index Pollutant
Not available.

Snow Depth

Station Depth Elevation

Earthquake Activity

City Distance Mag. Time & Date
Minimum magnitude displayed is 2.5.

Coastal Water Temperatures

Place Temperature

Stations

Nearby Weather Stations

Station Location Temp. Windchill Dew Point Humidity Wind Precip. Elev Updated Type